Time;durP1;ratioP1;P1;durP2;ratioP2;P2;SDS_P1;SDS_P2;PMS_P1;PMS_P2;Temp;Humidity;BMP_temperature;BMP_pressure;BME280_temperature;BME280_humidity;BME280_pressure;Samples;Min_cycle;Max_cycle;Signal;HPM_P1;HPM_P2
2021/06/03 00:02:09;;;;;;;18.20;11.15;;;;;;;;;;5052684;28;20099;-85
2021/06/03 00:04:36;;;;;;;14.57;9.85;;;;;;;;;;5050739;28;20057;-86
2021/06/03 00:07:04;;;;;;;17.38;10.07;;;;;;;;;;5034881;28;20120;-86
2021/06/03 00:09:31;;;;;;;15.70;10.63;;;;;;;;;;5035636;28;20183;-86
2021/06/03 00:12:00;;;;;;;16.63;11.05;;;;;;;;;;5053443;28;20472;-86
2021/06/03 00:14:27;;;;;;;16.35;10.27;;;;;;;;;;5036421;28;20122;-86
2021/06/03 00:16:55;;;;;;;16.35;10.15;;;;;;;;;;5051225;28;20127;-85
2021/06/03 00:19:22;;;;;;;16.58;10.32;;;;;;;;;;5031189;28;20049;-85
2021/06/03 00:21:49;;;;;;;16.42;10.60;;;;;;;;;;5048131;28;20144;-85
2021/06/03 00:24:16;;;;;;;16.30;10.07;;;;;;;;;;5051297;28;20084;-85
2021/06/03 00:26:44;;;;;;;21.30;10.18;;;;;;;;;;5054055;28;20140;-85
2021/06/03 00:29:14;;;;;;;15.95;10.48;;;;;;;;;;5053495;28;20501;-85
2021/06/03 00:31:42;;;;;;;17.25;10.57;;;;;;;;;;5053619;28;20046;-85
2021/06/03 00:34:09;;;;;;;17.15;10.32;;;;;;;;;;5054381;28;20099;-85
2021/06/03 00:36:36;;;;;;;15.20;10.18;;;;;;;;;;5054339;28;20458;-85
2021/06/03 00:39:06;;;;;;;15.77;11.25;;;;;;;;;;5037279;28;20045;-85
2021/06/03 00:41:33;;;;;;;16.85;11.13;;;;;;;;;;5054570;28;20106;-85
2021/06/03 00:44:01;;;;;;;17.67;11.40;;;;;;;;;;5054570;28;20135;-85
2021/06/03 00:46:29;;;;;;;16.98;10.70;;;;;;;;;;5055004;28;20088;-86
2021/06/03 00:48:57;;;;;;;16.80;9.82;;;;;;;;;;5037260;28;20527;-85
2021/06/03 00:51:24;;;;;;;21.38;10.82;;;;;;;;;;5036776;28;20119;-86
2021/06/03 00:53:52;;;;;;;15.95;10.80;;;;;;;;;;5038120;28;20084;-85
2021/06/03 00:56:19;;;;;;;21.67;10.38;;;;;;;;;;5055698;28;20669;-85
2021/06/03 00:58:46;;;;;;;16.23;10.18;;;;;;;;;;5056415;28;20127;-85
2021/06/03 01:01:14;;;;;;;15.27;10.80;;;;;;;;;;5059169;28;20033;-85
2021/06/03 01:03:41;;;;;;;20.38;10.85;;;;;;;;;;5056945;28;20072;-85
2021/06/03 01:06:09;;;;;;;15.10;10.60;;;;;;;;;;5055673;28;20131;-86
2021/06/03 01:08:38;;;;;;;17.05;10.25;;;;;;;;;;5040450;28;20041;-86
2021/06/03 01:11:15;;;;;;;16.35;10.18;;;;;;;;;;5032804;28;20076;-85
2021/06/03 01:14:01;;;;;;;14.60;10.48;;;;;;;;;;5055477;28;20072;-86
2021/06/03 01:16:28;;;;;;;;;;;;;;;;;;5056839;28;20106;-85
2021/06/03 01:18:57;;;;;;;13.85;9.30;;;;;;;;;;5038562;28;19928;-86
2021/06/03 01:21:28;;;;;;;24.27;10.02;;;;;;;;;;5038396;28;20092;-86
2021/06/03 01:24:13;;;;;;;17.08;9.48;;;;;;;;;;5037164;28;20049;-86
2021/06/03 01:26:42;;;;;;;12.32;9.18;;;;;;;;;;5052963;28;20663;-86
2021/06/03 01:29:10;;;;;;;16.92;9.88;;;;;;;;;;5052823;28;20095;-86
2021/06/03 01:31:37;;;;;;;17.05;9.85;;;;;;;;;;5044734;28;20108;-85
2021/06/03 01:34:04;;;;;;;15.75;9.52;;;;;;;;;;5039338;28;20041;-85
2021/06/03 01:36:32;;;;;;;17.00;9.55;;;;;;;;;;5046525;28;20103;-85
2021/06/03 01:39:01;;;;;;;12.38;9.00;;;;;;;;;;5053940;28;20052;-86
2021/06/03 01:41:28;;;;;;;18.08;9.05;;;;;;;;;;5035723;28;20080;-85
2021/06/03 01:43:56;;;;;;;16.58;9.90;;;;;;;;;;5052937;28;20076;-85
2021/06/03 01:46:23;;;;;;;17.58;9.00;;;;;;;;;;5050954;28;20076;-85
2021/06/03 01:48:50;;;;;;;16.35;10.80;;;;;;;;;;5051959;28;20041;-85
2021/06/03 01:51:18;;;;;;;15.60;8.80;;;;;;;;;;5053370;28;20072;-85
2021/06/03 01:53:45;;;;;;;14.30;8.57;;;;;;;;;;5053301;28;20087;-85
2021/06/03 01:56:16;;;;;;;15.98;8.95;;;;;;;;;;5050957;28;20072;-85
2021/06/03 01:58:44;;;;;;;14.25;9.10;;;;;;;;;;5053194;28;20084;-85
2021/06/03 02:01:11;;;;;;;15.27;9.18;;;;;;;;;;5052713;28;20156;-85
2021/06/03 02:03:50;;;;;;;25.83;9.57;;;;;;;;;;5035100;28;20076;-84
2021/06/03 02:06:17;;;;;;;16.50;8.40;;;;;;;;;;5044097;28;20099;-85
2021/06/03 02:08:45;;;;;;;11.40;7.85;;;;;;;;;;5052828;28;20055;-85
2021/06/03 02:11:12;;;;;;;14.02;8.82;;;;;;;;;;5052240;28;20521;-85
2021/06/03 02:13:55;;;;;;;16.38;8.27;;;;;;;;;;5035406;28;20103;-85
2021/06/03 02:16:29;;;;;;;13.10;8.80;;;;;;;;;;5035088;28;20088;-85
2021/06/03 02:19:05;;;;;;;17.33;9.63;;;;;;;;;;5035515;28;20478;-85
2021/06/03 02:21:35;;;;;;;15.00;9.05;;;;;;;;;;5034779;28;20091;-85
2021/06/03 02:24:03;;;;;;;14.77;10.85;;;;;;;;;;5034426;28;20056;-85
2021/06/03 02:26:31;;;;;;;15.98;9.02;;;;;;;;;;5051311;28;20084;-85
2021/06/03 02:28:58;;;;;;;14.32;8.48;;;;;;;;;;5052647;28;20087;-86
2021/06/03 02:31:25;;;;;;;12.48;8.75;;;;;;;;;;5034729;28;20119;-85
2021/06/03 02:33:54;;;;;;;11.25;8.05;;;;;;;;;;5034561;28;20486;-85
2021/06/03 02:36:22;;;;;;;13.20;8.65;;;;;;;;;;5034814;28;20045;-85
2021/06/03 02:38:50;;;;;;;14.27;8.55;;;;;;;;;;5034622;28;20049;-85
2021/06/03 02:41:17;;;;;;;15.70;9.50;;;;;;;;;;5034813;28;20072;-86
2021/06/03 02:43:46;;;;;;;16.45;9.73;;;;;;;;;;5034609;28;20049;-85
2021/06/03 02:46:14;;;;;;;18.02;8.82;;;;;;;;;;5034680;28;20107;-85
2021/06/03 02:48:41;;;;;;;20.27;8.70;;;;;;;;;;5034323;28;20055;-85
2021/06/03 02:51:12;;;;;;;12.52;9.05;;;;;;;;;;5034551;28;20444;-85
2021/06/03 02:53:39;;;;;;;11.90;8.93;;;;;;;;;;5034372;28;20135;-85
2021/06/03 02:56:07;;;;;;;14.73;8.98;;;;;;;;;;5034294;28;20087;-85
2021/06/03 02:58:34;;;;;;;12.80;9.07;;;;;;;;;;5050857;28;20580;-85
2021/06/03 03:01:01;;;;;;;12.40;8.43;;;;;;;;;;5032943;28;20057;-85
2021/06/03 03:03:29;;;;;;;16.35;9.35;;;;;;;;;;5034008;28;20084;-85
2021/06/03 03:05:56;;;;;;;17.30;8.90;;;;;;;;;;5033663;28;20104;-85
2021/06/03 03:08:26;;;;;;;12.18;8.77;;;;;;;;;;5050984;28;20131;-86
2021/06/03 03:10:54;;;;;;;12.60;9.20;;;;;;;;;;5050067;28;20095;-85
2021/06/03 03:13:22;;;;;;;24.83;9.85;;;;;;;;;;5050959;28;20147;-86
2021/06/03 03:15:49;;;;;;;14.55;9.57;;;;;;;;;;5033606;28;20140;-85
2021/06/03 03:18:17;;;;;;;16.50;9.50;;;;;;;;;;5033075;28;20049;-85
2021/06/03 03:20:45;;;;;;;17.50;9.95;;;;;;;;;;5033466;28;20103;-85
2021/06/03 03:23:13;;;;;;;13.68;9.77;;;;;;;;;;5050085;28;20144;-86
2021/06/03 03:25:40;;;;;;;17.83;10.18;;;;;;;;;;5050202;28;20079;-85
2021/06/03 03:28:10;;;;;;;15.02;9.70;;;;;;;;;;5031708;28;20133;-86
2021/06/03 03:30:42;;;;;;;16.83;10.38;;;;;;;;;;5049385;28;20478;-85
2021/06/03 03:33:11;;;;;;;17.10;10.05;;;;;;;;;;5050504;28;20077;-85
2021/06/03 03:35:39;;;;;;;13.40;9.38;;;;;;;;;;5048646;28;20136;-85
2021/06/03 03:38:06;;;;;;;15.38;9.82;;;;;;;;;;5051261;28;20119;-85
2021/06/03 03:40:34;;;;;;;19.48;9.63;;;;;;;;;;5033086;28;20136;-85
2021/06/03 03:43:02;;;;;;;14.18;9.02;;;;;;;;;;5033371;28;20057;-85
2021/06/03 03:45:32;;;;;;;11.80;9.02;;;;;;;;;;5033494;28;20065;-86
2021/06/03 03:48:02;;;;;;;14.55;9.20;;;;;;;;;;5050712;28;20049;-85
2021/06/03 03:50:34;;;;;;;13.27;9.80;;;;;;;;;;5050279;28;20044;-86
2021/06/03 03:53:05;;;;;;;18.63;9.93;;;;;;;;;;5035767;28;20052;-87
2021/06/03 03:55:34;;;;;;;13.48;9.73;;;;;;;;;;5050459;28;20496;-87
2021/06/03 03:58:03;;;;;;;16.50;9.82;;;;;;;;;;5033021;28;20080;-87
2021/06/03 04:00:31;;;;;;;15.48;8.88;;;;;;;;;;5033058;28;20091;-87
2021/06/03 04:03:00;;;;;;;13.27;9.80;;;;;;;;;;5032946;28;20085;-87
2021/06/03 04:05:27;;;;;;;18.27;8.98;;;;;;;;;;5033133;28;20088;-88
2021/06/03 04:07:55;;;;;;;18.25;9.90;;;;;;;;;;5051190;28;20140;-87
2021/06/03 04:10:23;;;;;;;14.15;9.93;;;;;;;;;;5033425;28;20049;-87
2021/06/03 04:12:51;;;;;;;19.05;9.35;;;;;;;;;;5025524;28;20046;-88
2021/06/03 04:15:19;;;;;;;19.42;9.18;;;;;;;;;;5027075;28;20123;-88
2021/06/03 04:17:47;;;;;;;16.23;9.20;;;;;;;;;;5033230;28;20847;-87
2021/06/03 04:20:17;;;;;;;20.00;8.23;;;;;;;;;;5054465;28;20103;-88
2021/06/03 04:22:44;;;;;;;14.32;9.38;;;;;;;;;;5020356;28;20059;-87
2021/06/03 04:25:12;;;;;;;16.77;9.70;;;;;;;;;;5037183;28;20049;-87
2021/06/03 04:27:39;;;;;;;13.73;8.55;;;;;;;;;;5036926;28;20087;-87
2021/06/03 04:30:09;;;;;;;18.92;9.00;;;;;;;;;;5036794;28;20045;-88
2021/06/03 04:32:36;;;;;;;13.80;9.27;;;;;;;;;;5036726;28;20080;-87
2021/06/03 04:35:04;;;;;;;12.50;8.07;;;;;;;;;;5053535;28;20049;-86
2021/06/03 04:37:31;;;;;;;19.45;9.00;;;;;;;;;;5054037;28;20543;-86
2021/06/03 04:40:00;;;;;;;21.17;8.65;;;;;;;;;;5036765;28;20080;-86
2021/06/03 04:42:27;;;;;;;15.18;8.20;;;;;;;;;;5054067;28;20544;-86
2021/06/03 04:44:54;;;;;;;17.30;7.25;;;;;;;;;;5053424;28;20081;-86
2021/06/03 04:47:23;;;;;;;16.35;7.82;;;;;;;;;;5034512;28;20124;-85
2021/06/03 04:49:51;;;;;;;10.65;6.97;;;;;;;;;;5052933;28;20091;-86
2021/06/03 04:52:31;;;;;;;13.32;7.60;;;;;;;;;;5035557;28;20084;-87
2021/06/03 04:55:02;;;;;;;13.95;7.72;;;;;;;;;;5051648;28;20044;-86
2021/06/03 04:57:29;;;;;;;11.15;6.93;;;;;;;;;;5035402;28;20073;-85
2021/06/03 04:59:56;;;;;;;12.45;7.13;;;;;;;;;;5052882;28;20084;-85
2021/06/03 05:02:25;;;;;;;17.00;7.25;;;;;;;;;;5052770;28;20124;-85
2021/06/03 05:04:53;;;;;;;8.93;6.47;;;;;;;;;;5034817;28;20670;-85
2021/06/03 05:07:22;;;;;;;17.38;6.38;;;;;;;;;;5035718;28;20087;-86
2021/06/03 05:09:49;;;;;;;11.32;6.25;;;;;;;;;;5035549;28;20084;-85
2021/06/03 05:12:16;;;;;;;13.13;6.32;;;;;;;;;;5035482;28;20041;-86
2021/06/03 05:14:45;;;;;;;10.23;6.22;;;;;;;;;;5035068;28;20056;-86
2021/06/03 05:17:12;;;;;;;13.88;6.22;;;;;;;;;;5052959;28;20072;-87
2021/06/03 05:19:40;;;;;;;15.80;7.07;;;;;;;;;;5035996;28;20102;-87
2021/06/03 05:22:09;;;;;;;12.50;6.10;;;;;;;;;;5035777;28;20084;-88
2021/06/03 05:24:36;;;;;;;11.68;6.15;;;;;;;;;;5053368;28;20095;-87
2021/06/03 05:27:04;;;;;;;12.43;6.20;;;;;;;;;;5052957;28;20493;-87
2021/06/03 05:29:32;;;;;;;10.55;5.63;;;;;;;;;;5051482;28;20841;-88
2021/06/03 05:32:03;;;;;;;9.98;5.80;;;;;;;;;;5034788;28;20447;-86
2021/06/03 05:34:30;;;;;;;12.75;5.88;;;;;;;;;;5035210;28;20053;-87
2021/06/03 05:36:58;;;;;;;19.65;6.50;;;;;;;;;;5034992;28;20124;-87
2021/06/03 05:39:27;;;;;;;14.25;6.53;;;;;;;;;;5051743;28;20090;-87
2021/06/03 05:41:54;;;;;;;18.13;7.05;;;;;;;;;;5051527;28;20048;-86
2021/06/03 05:44:30;;;;;;;8.77;5.38;;;;;;;;;;5052246;28;20068;-85
2021/06/03 05:46:57;;;;;;;;;;;;;;;;;;5053129;28;20072;-86
2021/06/03 05:49:28;;;;;;;25.42;5.80;;;;;;;;;;5031314;28;19920;-86
2021/06/03 05:51:55;;;;;;;10.73;5.90;;;;;;;;;;5043357;28;20091;-86
2021/06/03 05:54:22;;;;;;;11.75;6.28;;;;;;;;;;5055053;28;20139;-86
2021/06/03 05:56:50;;;;;;;10.65;5.65;;;;;;;;;;5054741;28;20132;-86
2021/06/03 05:59:28;;;;;;;19.95;6.18;;;;;;;;;;5048759;28;20489;-86
2021/06/03 06:02:03;;;;;;;9.02;6.00;;;;;;;;;;5052201;28;20391;-86
2021/06/03 06:07:02;;;;;;;10.40;5.35;;;;;;;;;;5051748;28;20083;-86
2021/06/03 06:09:30;;;;;;;10.88;5.40;;;;;;;;;;5035989;28;20049;-86
2021/06/03 06:11:57;;;;;;;20.00;5.45;;;;;;;;;;5051435;28;20091;-86
2021/06/03 06:14:24;;;;;;;15.07;5.30;;;;;;;;;;5034215;28;20045;-86
2021/06/03 06:16:52;;;;;;;7.10;5.25;;;;;;;;;;5050382;28;20424;-87
2021/06/03 06:19:19;;;;;;;13.55;5.63;;;;;;;;;;5033804;28;20045;-87
2021/06/03 06:21:46;;;;;;;10.07;5.88;;;;;;;;;;5052978;28;20485;-85
2021/06/03 06:24:15;;;;;;;12.02;5.80;;;;;;;;;;5029297;28;20047;-85
2021/06/03 06:26:49;;;;;;;10.20;7.63;;;;;;;;;;5047316;28;20180;-85
2021/06/03 06:29:16;;;;;;;11.93;5.03;;;;;;;;;;5026661;28;20072;-85
2021/06/03 06:31:44;;;;;;;11.70;5.35;;;;;;;;;;5049805;28;20126;-85
2021/06/03 06:34:13;;;;;;;8.10;4.82;;;;;;;;;;5031033;28;20073;-85
2021/06/03 06:36:44;;;;;;;7.10;4.57;;;;;;;;;;5043401;28;20065;-86
2021/06/03 06:39:11;;;;;;;13.95;5.28;;;;;;;;;;5023405;28;20102;-85
2021/06/03 06:41:41;;;;;;;16.30;5.13;;;;;;;;;;5025981;28;20140;-85
2021/06/03 06:44:09;;;;;;;18.48;5.38;;;;;;;;;;5023826;28;20052;-85
2021/06/03 06:46:39;;;;;;;11.88;4.95;;;;;;;;;;5022919;28;20069;-85
2021/06/03 06:49:08;;;;;;;17.75;4.63;;;;;;;;;;5029847;28;20053;-85
2021/06/03 06:51:36;;;;;;;10.20;5.78;;;;;;;;;;5021873;28;20810;-86
2021/06/03 06:54:03;;;;;;;9.93;4.60;;;;;;;;;;5033690;28;20049;-87
2021/06/03 06:56:33;;;;;;;9.15;4.05;;;;;;;;;;5051595;28;20045;-86
2021/06/03 06:59:00;;;;;;;12.30;5.63;;;;;;;;;;5033338;28;20657;-84
2021/06/03 07:01:28;;;;;;;11.07;4.50;;;;;;;;;;5033196;28;20049;-85
2021/06/03 07:03:56;;;;;;;9.93;4.13;;;;;;;;;;5034414;28;20079;-85
2021/06/03 07:06:23;;;;;;;9.00;4.78;;;;;;;;;;5035460;28;20044;-84
2021/06/03 07:08:51;;;;;;;14.60;4.53;;;;;;;;;;5033554;28;20083;-85
2021/06/03 07:11:18;;;;;;;13.32;5.22;;;;;;;;;;5033449;28;20092;-85
2021/06/03 07:13:45;;;;;;;13.23;3.92;;;;;;;;;;5052397;28;20797;-86
2021/06/03 07:16:12;;;;;;;18.92;4.10;;;;;;;;;;5033398;28;20110;-86
2021/06/03 07:18:40;;;;;;;5.93;4.10;;;;;;;;;;5051261;28;20563;-86
2021/06/03 07:21:07;;;;;;;9.45;4.60;;;;;;;;;;5033276;28;20103;-85
2021/06/03 07:23:34;;;;;;;13.50;4.53;;;;;;;;;;5032847;28;20080;-86
2021/06/03 07:26:01;;;;;;;8.73;3.97;;;;;;;;;;5033487;28;20084;-86
2021/06/03 07:28:29;;;;;;;10.65;5.10;;;;;;;;;;5035405;28;20103;-85
2021/06/03 07:30:57;;;;;;;14.77;4.20;;;;;;;;;;5034010;28;20071;-85
2021/06/03 07:33:26;;;;;;;21.05;4.50;;;;;;;;;;5033197;28;20041;-85
2021/06/03 07:35:53;;;;;;;6.47;4.32;;;;;;;;;;5041688;28;20134;-86
2021/06/03 07:38:21;;;;;;;16.40;3.55;;;;;;;;;;5034004;28;20220;-86
2021/06/03 07:40:48;;;;;;;8.82;4.72;;;;;;;;;;5050017;28;20700;-86
2021/06/03 07:43:15;;;;;;;5.93;3.40;;;;;;;;;;5050812;28;20128;-87
2021/06/03 07:45:43;;;;;;;10.05;4.25;;;;;;;;;;5033410;28;20111;-86
2021/06/03 07:48:10;;;;;;;5.38;3.30;;;;;;;;;;5033505;28;20375;-87
2021/06/03 07:50:38;;;;;;;13.52;4.18;;;;;;;;;;5051315;28;20076;-86
2021/06/03 07:53:07;;;;;;;9.82;4.88;;;;;;;;;;5042297;28;20463;-86
2021/06/03 07:55:35;;;;;;;7.68;4.07;;;;;;;;;;5035258;28;20133;-86
2021/06/03 07:58:05;;;;;;;9.63;4.20;;;;;;;;;;5033926;28;20080;-86
2021/06/03 08:00:32;;;;;;;10.68;3.88;;;;;;;;;;5033778;28;20607;-85
2021/06/03 08:03:15;;;;;;;10.23;5.65;;;;;;;;;;5033697;28;20091;-87
2021/06/03 08:05:44;;;;;;;11.02;3.40;;;;;;;;;;5046461;28;20053;-87
2021/06/03 08:08:11;;;;;;;5.32;3.88;;;;;;;;;;5053012;28;20144;-86
2021/06/03 08:10:40;;;;;;;16.42;5.13;;;;;;;;;;5055120;28;20581;-87
2021/06/03 08:13:08;;;;;;;9.85;3.90;;;;;;;;;;5049927;28;20084;-86
2021/06/03 08:15:36;;;;;;;9.98;4.63;;;;;;;;;;5034750;28;20128;-86
2021/06/03 08:18:03;;;;;;;13.70;4.10;;;;;;;;;;5049714;28;20085;-86
2021/06/03 08:20:39;;;;;;;7.25;3.58;;;;;;;;;;5035527;28;20068;-87
2021/06/03 08:23:07;;;;;;;8.63;3.92;;;;;;;;;;5050313;28;20084;-87
2021/06/03 08:25:35;;;;;;;9.63;4.43;;;;;;;;;;5034354;28;20049;-86
2021/06/03 08:28:03;;;;;;;11.05;4.35;;;;;;;;;;5049899;28;20140;-86
2021/06/03 08:30:31;;;;;;;10.05;4.13;;;;;;;;;;5050457;28;20096;-87
2021/06/03 08:32:58;;;;;;;5.03;3.70;;;;;;;;;;5049331;28;20077;-87
2021/06/03 08:35:26;;;;;;;5.03;3.58;;;;;;;;;;5047033;28;20136;-87
2021/06/03 08:37:54;;;;;;;7.60;3.88;;;;;;;;;;5040683;28;20132;-87
2021/06/03 08:40:24;;;;;;;14.25;4.50;;;;;;;;;;5050357;28;20111;-86
2021/06/03 08:42:51;;;;;;;4.00;3.60;;;;;;;;;;5051789;28;20080;-87
2021/06/03 08:45:20;;;;;;;20.30;4.00;;;;;;;;;;5051258;28;20049;-87
2021/06/03 08:47:48;;;;;;;13.00;4.45;;;;;;;;;;5035456;28;20422;-87
2021/06/03 08:50:16;;;;;;;8.23;3.70;;;;;;;;;;5050786;28;20049;-86
2021/06/03 08:52:44;;;;;;;6.72;4.10;;;;;;;;;;5054392;28;20045;-87
2021/06/03 08:56:14;;;;;;;10.15;4.50;;;;;;;;;;5052978;28;20140;-87
2021/06/03 08:58:06;;;;;;;6.97;4.05;;;;;;;;;;5054259;28;20099;-87
2021/06/03 09:00:34;;;;;;;8.82;3.45;;;;;;;;;;5054050;28;20128;-87
2021/06/03 09:03:02;;;;;;;11.05;5.43;;;;;;;;;;5038735;28;20103;-87
2021/06/03 09:05:30;;;;;;;12.57;5.25;;;;;;;;;;5036480;28;20128;-87
2021/06/03 09:08:01;;;;;;;19.23;4.38;;;;;;;;;;5036470;28;20064;-86
2021/06/03 09:10:36;;;;;;;10.75;4.80;;;;;;;;;;5054074;28;20085;-87
2021/06/03 09:13:03;;;;;;;;;;;;;;;;;;5054304;28;20053;-86
2021/06/03 09:15:30;;;;;;;10.50;4.05;;;;;;;;;;5053780;28;19975;-87
2021/06/03 09:17:59;;;;;;;6.40;3.30;;;;;;;;;;5037112;28;20049;-87
2021/06/03 09:20:27;;;;;;;8.80;3.97;;;;;;;;;;5054772;28;20088;-87
2021/06/03 09:22:54;;;;;;;6.63;3.55;;;;;;;;;;5036606;28;20053;-87
2021/06/03 09:25:53;;;;;;;10.90;3.42;;;;;;;;;;5037036;28;20053;-86
2021/06/03 09:28:22;;;;;;;11.25;4.25;;;;;;;;;;5024397;28;20099;-87
2021/06/03 09:30:53;;;;;;;9.45;3.97;;;;;;;;;;5037071;28;20100;-87
2021/06/03 09:33:35;;;;;;;12.13;3.67;;;;;;;;;;5053768;28;20060;-87
2021/06/03 09:36:04;;;;;;;7.90;3.70;;;;;;;;;;5054901;28;20099;-85
2021/06/03 09:38:31;;;;;;;9.13;4.10;;;;;;;;;;5057532;28;20072;-87
2021/06/03 09:40:59;;;;;;;11.25;3.60;;;;;;;;;;5058582;28;20183;-86
2021/06/03 09:43:26;;;;;;;7.93;4.13;;;;;;;;;;5039512;28;20140;-87
2021/06/03 09:46:01;;;;;;;8.52;4.18;;;;;;;;;;5057999;28;20091;-88
2021/06/03 09:48:36;;;;;;;5.32;3.45;;;;;;;;;;5057894;28;20052;-86
2021/06/03 09:51:23;;;;;;;12.70;4.03;;;;;;;;;;5059709;28;20438;-86
2021/06/03 09:53:53;;;;;;;4.18;3.35;;;;;;;;;;5057830;28;20072;-87
2021/06/03 09:56:22;;;;;;;10.68;3.58;;;;;;;;;;5064315;28;20072;-85
2021/06/03 09:58:49;;;;;;;8.98;3.60;;;;;;;;;;5064155;28;20041;-87
2021/06/03 10:01:40;;;;;;;5.50;3.35;;;;;;;;;;5067501;28;20060;-88
2021/06/03 10:04:11;;;;;;;16.88;3.25;;;;;;;;;;5067595;28;20421;-87
2021/06/03 10:07:02;;;;;;;14.35;3.92;;;;;;;;;;5062120;28;20052;-87
2021/06/03 10:09:40;;;;;;;5.53;3.35;;;;;;;;;;5054604;28;20544;-87
2021/06/03 10:12:08;;;;;;;12.80;3.90;;;;;;;;;;5054282;28;20473;-86
2021/06/03 10:15:01;;;;;;;6.72;3.10;;;;;;;;;;5054441;28;20465;-87
2021/06/03 10:17:30;;;;;;;11.85;4.00;;;;;;;;;;5053438;28;20045;-87
2021/06/03 10:19:59;;;;;;;11.80;3.75;;;;;;;;;;5054638;28;20053;-88
2021/06/03 10:22:28;;;;;;;9.52;3.60;;;;;;;;;;5052968;28;20075;-87
2021/06/03 10:24:55;;;;;;;6.15;3.17;;;;;;;;;;5052291;28;20080;-87
2021/06/03 10:27:24;;;;;;;12.50;3.47;;;;;;;;;;5052333;28;20505;-87
2021/06/03 10:29:52;;;;;;;10.27;3.00;;;;;;;;;;5052353;28;20564;-87
2021/06/03 10:32:20;;;;;;;7.20;3.30;;;;;;;;;;5052086;28;20045;-86
2021/06/03 10:34:51;;;;;;;6.38;3.08;;;;;;;;;;5053564;28;20048;-87
2021/06/03 10:37:19;;;;;;;9.93;3.85;;;;;;;;;;5052251;28;20075;-87
2021/06/03 10:39:47;;;;;;;5.03;2.90;;;;;;;;;;5051595;28;20132;-87
2021/06/03 10:42:25;;;;;;;4.85;3.38;;;;;;;;;;5053443;28;20103;-87
2021/06/03 10:44:53;;;;;;;9.10;3.30;;;;;;;;;;5035730;28;20093;-87
2021/06/03 10:47:21;;;;;;;9.38;4.00;;;;;;;;;;5053319;28;20139;-87
2021/06/03 10:49:49;;;;;;;6.10;3.72;;;;;;;;;;5053175;28;20055;-87
2021/06/03 10:52:30;;;;;;;7.80;3.25;;;;;;;;;;5052808;28;20076;-87
2021/06/03 10:54:59;;;;;;;23.50;4.53;;;;;;;;;;5035248;28;20136;-87
2021/06/03 10:57:48;;;;;;;15.55;3.30;;;;;;;;;;5052784;28;20098;-87
2021/06/03 11:00:29;;;;;;;9.82;3.78;;;;;;;;;;5015424;28;20128;-86
2021/06/03 11:03:19;;;;;;;12.40;3.33;;;;;;;;;;5034182;28;20084;-87
2021/06/03 11:05:47;;;;;;;12.05;3.45;;;;;;;;;;5048321;28;20708;-87
2021/06/03 11:08:29;;;;;;;9.02;4.43;;;;;;;;;;5032864;28;20140;-87
2021/06/03 11:11:08;;;;;;;7.70;3.38;;;;;;;;;;5034245;28;20049;-87
2021/06/03 11:14:01;;;;;;;5.35;3.55;;;;;;;;;;5035325;28;20045;-86
2021/06/03 11:16:28;;;;;;;7.80;3.20;;;;;;;;;;5027963;28;20114;-87
2021/06/03 11:18:56;;;;;;;14.32;3.25;;;;;;;;;;5035456;28;20079;-87
2021/06/03 11:21:33;;;;;;;6.13;3.50;;;;;;;;;;5052982;28;20581;-87
2021/06/03 11:24:04;;;;;;;5.70;3.05;;;;;;;;;;5053160;28;20080;-87
2021/06/03 11:26:38;;;;;;;6.07;2.70;;;;;;;;;;5051707;28;20482;-87
2021/06/03 11:29:30;;;;;;;8.85;3.47;;;;;;;;;;5055701;28;20049;-87
2021/06/03 11:32:01;;;;;;;9.98;3.65;;;;;;;;;;5056407;28;20536;-87
2021/06/03 11:34:42;;;;;;;7.93;3.20;;;;;;;;;;5056816;28;20041;-87
2021/06/03 11:37:12;;;;;;;10.40;3.80;;;;;;;;;;5039361;28;20083;-88
2021/06/03 11:39:59;;;;;;;6.72;3.05;;;;;;;;;;5039222;28;20452;-87
2021/06/03 11:42:32;;;;;;;4.90;2.90;;;;;;;;;;5055968;28;20057;-88
2021/06/03 11:45:03;;;;;;;6.75;2.95;;;;;;;;;;5055899;28;20147;-88
2021/06/03 11:47:34;;;;;;;7.35;3.40;;;;;;;;;;5055838;28;20090;-87
2021/06/03 11:50:04;;;;;;;8.35;2.70;;;;;;;;;;5057266;28;20081;-88
2021/06/03 11:52:31;;;;;;;11.13;3.47;;;;;;;;;;5056503;28;20822;-87
2021/06/03 11:54:58;;;;;;;8.63;2.60;;;;;;;;;;5055685;28;20128;-87
2021/06/03 11:57:28;;;;;;;24.70;4.78;;;;;;;;;;5055432;28;20091;-87
2021/06/03 12:00:07;;;;;;;8.23;3.95;;;;;;;;;;5055252;28;20079;-87
2021/06/03 12:02:37;;;;;;;10.52;3.85;;;;;;;;;;5055319;28;20131;-87
2021/06/03 12:05:14;;;;;;;4.80;2.80;;;;;;;;;;5054372;28;20444;-87
2021/06/03 12:07:48;;;;;;;6.80;3.10;;;;;;;;;;5037968;28;20129;-86
2021/06/03 12:10:17;;;;;;;4.60;2.83;;;;;;;;;;5055610;28;20763;-87
2021/06/03 12:12:49;;;;;;;5.13;3.25;;;;;;;;;;5056129;28;20083;-87
2021/06/03 12:15:18;;;;;;;9.63;2.95;;;;;;;;;;5038654;28;20076;-88
2021/06/03 12:17:46;;;;;;;7.88;3.00;;;;;;;;;;5038729;28;20098;-87
2021/06/03 12:20:14;;;;;;;7.93;3.40;;;;;;;;;;5038074;28;20053;-87
2021/06/03 12:22:48;;;;;;;19.30;3.67;;;;;;;;;;5038549;28;20076;-86
2021/06/03 12:25:15;;;;;;;8.90;3.10;;;;;;;;;;5038222;28;20084;-90
2021/06/03 12:27:44;;;;;;;10.38;3.20;;;;;;;;;;5037918;28;20820;-87
2021/06/03 12:30:28;;;;;;;8.45;3.05;;;;;;;;;;5038188;28;20140;-87
2021/06/03 12:33:16;;;;;;;6.28;3.55;;;;;;;;;;5055476;28;20462;-87
2021/06/03 12:35:48;;;;;;;5.18;2.88;;;;;;;;;;5055842;28;20208;-88
2021/06/03 12:38:38;;;;;;;4.13;3.00;;;;;;;;;;5037362;28;20171;-87
2021/06/03 12:41:21;;;;;;;8.32;2.80;;;;;;;;;;5055022;28;20049;-88
2021/06/03 12:44:02;;;;;;;3.30;3.00;;;;;;;;;;5037399;28;20041;-88
2021/06/03 12:46:34;;;;;;;8.35;3.38;;;;;;;;;;5038089;28;20071;-89
2021/06/03 12:49:04;;;;;;;7.57;3.42;;;;;;;;;;5054255;28;20053;-90
2021/06/03 12:51:31;;;;;;;7.50;3.05;;;;;;;;;;5074694;28;20489;-90
2021/06/03 12:53:59;;;;;;;5.80;3.40;;;;;;;;;;5038531;28;20085;-87
2021/06/03 12:56:27;;;;;;;7.55;3.15;;;;;;;;;;5054959;28;20045;-87
2021/06/03 12:58:54;;;;;;;6.45;3.42;;;;;;;;;;5036991;28;20486;-87
2021/06/03 13:01:29;;;;;;;8.68;3.25;;;;;;;;;;5037973;28;20108;-91
2021/06/03 13:04:06;;;;;;;5.20;3.10;;;;;;;;;;5036958;28;20842;-87
2021/06/03 13:06:33;;;;;;;6.07;2.97;;;;;;;;;;5040116;28;20049;-87
2021/06/03 13:09:00;;;;;;;5.15;3.15;;;;;;;;;;5036950;28;20045;-87
2021/06/03 13:11:29;;;;;;;9.50;3.50;;;;;;;;;;5054682;28;20800;-87
2021/06/03 13:14:12;;;;;;;8.38;3.20;;;;;;;;;;5037746;28;20067;-87
2021/06/03 13:16:40;;;;;;;9.38;3.22;;;;;;;;;;5038608;28;20076;-87
2021/06/03 13:19:19;;;;;;;5.85;3.13;;;;;;;;;;5036852;28;20052;-88
2021/06/03 13:21:50;;;;;;;12.15;3.60;;;;;;;;;;5053103;28;20615;-88
2021/06/03 13:24:20;;;;;;;13.05;4.95;;;;;;;;;;5036160;28;20140;-88
2021/06/03 13:26:47;;;;;;;7.03;3.22;;;;;;;;;;5054071;28;20076;-87
2021/06/03 13:29:15;;;;;;;16.08;3.67;;;;;;;;;;5054067;28;20422;-87
2021/06/03 13:31:59;;;;;;;7.25;3.92;;;;;;;;;;5053930;28;20156;-87
2021/06/03 13:34:37;;;;;;;13.75;5.03;;;;;;;;;;5047174;28;20053;-88
2021/06/03 13:37:06;;;;;;;9.07;3.58;;;;;;;;;;5053173;28;20049;-88
2021/06/03 13:39:35;;;;;;;10.23;3.47;;;;;;;;;;5036806;28;20076;-87
2021/06/03 13:42:20;;;;;;;10.43;3.45;;;;;;;;;;5052547;28;20148;-87
2021/06/03 13:45:24;;;;;;;14.25;2.95;;;;;;;;;;5038546;28;20075;-87
2021/06/03 13:47:53;;;;;;;7.13;2.92;;;;;;;;;;5053840;28;20088;-88
2021/06/03 13:50:40;;;;;;;8.77;3.38;;;;;;;;;;5050854;28;20045;-88
2021/06/03 13:53:33;;;;;;;11.63;3.60;;;;;;;;;;5033161;28;20139;-86
2021/06/03 13:56:17;;;;;;;8.68;3.45;;;;;;;;;;5019734;28;20128;-87
2021/06/03 13:59:09;;;;;;;9.55;3.78;;;;;;;;;;5025635;28;20851;-87
2021/06/03 14:01:47;;;;;;;7.95;3.60;;;;;;;;;;5048138;28;20131;-86
2021/06/03 14:04:21;;;;;;;7.95;2.70;;;;;;;;;;5049545;28;20075;-86
2021/06/03 14:06:52;;;;;;;5.93;2.85;;;;;;;;;;5037228;28;20128;-84
2021/06/03 14:09:30;;;;;;;5.40;3.30;;;;;;;;;;5022264;28;20076;-84
2021/06/03 14:12:08;;;;;;;5.57;3.00;;;;;;;;;;5019105;28;20053;-85
2021/06/03 14:14:38;;;;;;;6.88;3.20;;;;;;;;;;5030788;28;20061;-84
2021/06/03 14:17:05;;;;;;;4.10;2.65;;;;;;;;;;5051614;28;20124;-83
2021/06/03 14:19:35;;;;;;;9.30;3.17;;;;;;;;;;5049414;28;20049;-84
2021/06/03 14:22:02;;;;;;;5.00;3.20;;;;;;;;;;5031531;28;20081;-85
2021/06/03 14:24:34;;;;;;;16.67;3.40;;;;;;;;;;5029857;28;20049;-84
2021/06/03 14:27:09;;;;;;;11.50;3.28;;;;;;;;;;5040288;28;20118;-85
2021/06/03 14:29:37;;;;;;;;;;;;;;;;;;5050130;28;20115;-85
2021/06/03 14:32:13;;;;;;;7.05;3.42;;;;;;;;;;5033345;28;20393;-85
2021/06/03 14:34:51;;;;;;;7.55;3.28;;;;;;;;;;5019271;28;20136;-85
2021/06/03 14:37:24;;;;;;;4.45;2.80;;;;;;;;;;5045236;28;20067;-85
2021/06/03 14:39:58;;;;;;;9.13;2.97;;;;;;;;;;5034796;28;20131;-85
2021/06/03 14:42:35;;;;;;;8.30;3.15;;;;;;;;;;5049940;28;20056;-84
2021/06/03 14:45:06;;;;;;;5.65;3.03;;;;;;;;;;5032396;28;20110;-86
2021/06/03 14:47:34;;;;;;;5.20;2.80;;;;;;;;;;5031977;28;20073;-87
2021/06/03 14:50:02;;;;;;;5.63;2.95;;;;;;;;;;5047777;28;20076;-85
2021/06/03 14:52:31;;;;;;;13.07;2.70;;;;;;;;;;5053999;28;20452;-84
2021/06/03 14:55:00;;;;;;;6.05;2.70;;;;;;;;;;5050584;28;20494;-85
2021/06/03 14:57:29;;;;;;;3.90;3.00;;;;;;;;;;5056375;28;20116;-86
2021/06/03 14:59:58;;;;;;;11.70;3.55;;;;;;;;;;5034843;28;20048;-84